Time;durP1;ratioP1;P1;durP2;ratioP2;P2;SDS_P1;SDS_P2;PMS_P1;PMS_P2;Temp;Humidity;BMP_temperature;BMP_pressure;BME280_temperature;BME280_humidity;BME280_pressure;Samples;Min_cycle;Max_cycle;Signal;HPM_P1;HPM_P2
2022/08/08 00:01:21;;;;;;;3.08;1.30;;;13.00;99.90;;;;;;4976043;28;20128;-80
2022/08/08 00:04:25;;;;;;;1.85;1.30;;;13.00;99.90;;;;;;5033908;28;20045;-80
2022/08/08 00:07:20;;;;;;;2.25;1.20;;;12.90;99.90;;;;;;5023448;28;20084;-80
2022/08/08 00:10:02;;;;;;;3.30;1.63;;;12.90;99.90;;;;;;5035139;28;20089;-79
2022/08/08 00:12:51;;;;;;;3.03;1.48;;;12.90;99.90;;;;;;5038423;28;20048;-79
2022/08/08 00:15:30;;;;;;;3.13;1.65;;;12.90;99.90;;;;;;5043638;28;20394;-80
2022/08/08 00:18:00;;;;;;;2.63;1.73;;;12.80;99.90;;;;;;5055360;28;20120;-80
2022/08/08 00:20:51;;;;;;;3.47;1.83;;;12.90;99.90;;;;;;5038208;28;20510;-80
2022/08/08 00:23:30;;;;;;;2.50;1.70;;;12.80;99.90;;;;;;5052143;28;20041;-82
2022/08/08 00:25:59;;;;;;;1.98;1.30;;;12.80;99.90;;;;;;5030377;28;20049;-82
2022/08/08 00:28:34;;;;;;;1.95;1.30;;;12.80;99.90;;;;;;5045261;28;20544;-81
2022/08/08 00:31:02;;;;;;;2.15;1.30;;;12.70;99.90;;;;;;5038368;28;20049;-82
2022/08/08 00:33:34;;;;;;;3.17;1.60;;;12.70;99.90;;;;;;5038759;28;20048;-83
2022/08/08 00:36:20;;;;;;;1.88;1.38;;;12.70;99.90;;;;;;5035570;28;20437;-83
2022/08/08 00:39:05;;;;;;;2.33;1.35;;;12.70;99.90;;;;;;5042931;28;20041;-82
2022/08/08 00:42:01;;;;;;;4.20;1.55;;;12.70;99.90;;;;;;5037789;28;20128;-82
2022/08/08 00:45:21;;;;;;;2.45;1.52;;;12.60;99.90;;;;;;5051102;28;20403;-82
2022/08/08 00:48:11;;;;;;;2.03;1.30;;;12.60;99.90;;;;;;4985490;28;20089;-82
2022/08/08 00:50:40;;;;;;;2.13;1.23;;;12.60;99.90;;;;;;5017695;28;20435;-82
2022/08/08 00:53:27;;;;;;;2.90;1.77;;;12.60;99.90;;;;;;5017607;28;20559;-82
2022/08/08 00:55:53;;;;;;;1.40;1.15;;;12.60;99.90;;;;;;5037810;28;20446;-82
2022/08/08 00:58:33;;;;;;;1.92;1.20;;;12.60;99.90;;;;;;5040262;28;20096;-82
2022/08/08 01:01:31;;;;;;;2.78;1.60;;;13.00;99.90;;;;;;5033992;28;20057;-81
2022/08/08 01:04:18;;;;;;;2.30;1.30;;;12.60;99.90;;;;;;5034391;28;20088;-81
2022/08/08 01:06:56;;;;;;;2.08;1.27;;;12.70;99.90;;;;;;5017486;28;20037;-81
2022/08/08 01:09:57;;;;;;;2.95;1.70;;;12.70;99.90;;;;;;5028550;28;20044;-81
2022/08/08 01:12:45;;;;;;;3.72;1.98;;;12.80;99.90;;;;;;5031586;28;20539;-82
2022/08/08 01:15:48;;;;;;;2.58;1.67;;;12.80;99.90;;;;;;5034218;28;20384;-79
2022/08/08 01:18:32;;;;;;;2.05;1.55;;;12.80;99.90;;;;;;5022976;28;20123;-80
2022/08/08 01:21:06;;;;;;;2.08;1.30;;;12.90;99.90;;;;;;5014079;28;20041;-80
2022/08/08 01:24:09;;;;;;;2.60;1.50;;;12.90;99.90;;;;;;5014878;28;20375;-80
2022/08/08 01:27:25;;;;;;;2.95;1.38;;;12.80;99.90;;;;;;5008350;28;20120;-80
2022/08/08 01:30:42;;;;;;;2.65;1.42;;;12.80;99.90;;;;;;5022974;28;20510;-80
2022/08/08 01:33:22;;;;;;;2.72;1.50;;;12.80;99.90;;;;;;5033875;28;20041;-79
2022/08/08 01:35:57;;;;;;;2.42;1.60;;;12.80;99.90;;;;;;5017623;28;20550;-79
2022/08/08 01:39:00;;;;;;;5.40;1.63;;;12.80;99.90;;;;;;5033930;28;20052;-79
2022/08/08 01:41:29;;;;;;;2.10;1.42;;;12.70;99.90;;;;;;5004972;28;20055;-79
2022/08/08 01:44:10;;;;;;;3.53;1.30;;;12.70;99.90;;;;;;5036753;28;20036;-79
2022/08/08 01:46:57;;;;;;;3.22;1.20;;;12.60;99.90;;;;;;5054016;28;20102;-79
2022/08/08 01:49:29;;;;;;;;;;;12.60;99.90;;;;;;5034779;28;20391;-79
2022/08/08 01:52:07;;;;;;;2.10;1.15;;;12.50;99.90;;;;;;5032932;28;19920;-79
2022/08/08 01:54:53;;;;;;;1.50;1.20;;;12.50;99.90;;;;;;5036362;28;20095;-79
2022/08/08 01:57:38;;;;;;;2.25;1.35;;;12.40;99.90;;;;;;5022197;28;20041;-79
2022/08/08 02:00:21;;;;;;;1.92;1.10;;;12.40;99.90;;;;;;5018720;28;20041;-80
2022/08/08 02:03:18;;;;;;;3.17;1.42;;;12.40;99.90;;;;;;4992738;28;20048;-79
2022/08/08 02:06:11;;;;;;;1.83;1.42;;;12.40;99.90;;;;;;5000039;28;20434;-79
2022/08/08 02:08:58;;;;;;;1.73;1.02;;;12.40;99.90;;;;;;4999916;28;20054;-79
2022/08/08 02:11:32;;;;;;;2.38;1.35;;;12.40;99.90;;;;;;4984610;28;20117;-80
2022/08/08 02:14:17;;;;;;;1.75;1.23;;;12.30;99.90;;;;;;4998733;28;20092;-79
2022/08/08 02:17:03;;;;;;;1.67;1.10;;;12.30;99.90;;;;;;5032200;23;20088;-80
2022/08/08 02:19:54;;;;;;;2.50;1.33;;;12.20;99.90;;;;;;5032753;28;20038;-80
2022/08/08 02:22:31;;;;;;;1.65;1.10;;;12.20;99.90;;;;;;5031393;28;20048;-80
2022/08/08 02:25:21;;;;;;;1.98;1.20;;;12.20;99.90;;;;;;5032703;28;20053;-80
2022/08/08 02:28:20;;;;;;;1.42;1.00;;;12.20;99.90;;;;;;5032580;28;20052;-80
2022/08/08 02:31:07;;;;;;;1.42;1.10;;;12.20;99.90;;;;;;5015996;28;20033;-80
2022/08/08 02:33:54;;;;;;;2.38;1.50;;;12.10;99.90;;;;;;5031819;28;20083;-79
2022/08/08 02:37:00;;;;;;;2.65;1.48;;;12.10;99.90;;;;;;5015983;28;20053;-79
2022/08/08 02:39:47;;;;;;;2.72;1.52;;;12.10;99.90;;;;;;5033020;28;20387;-82
2022/08/08 02:42:38;;;;;;;2.58;1.40;;;12.10;99.90;;;;;;5015842;28;20488;-82
2022/08/08 02:45:34;;;;;;;2.08;1.38;;;12.10;99.90;;;;;;5013133;28;20404;-82
2022/08/08 02:48:31;;;;;;;2.38;1.50;;;12.10;99.90;;;;;;4996770;28;20136;-82
2022/08/08 02:51:12;;;;;;;1.60;1.25;;;12.00;99.90;;;;;;4992449;28;20051;-82
2022/08/08 02:54:17;;;;;;;1.83;1.10;;;12.00;99.90;;;;;;5017563;28;20049;-79
2022/08/08 02:57:19;;;;;;;2.85;1.40;;;12.00;99.90;;;;;;5032200;28;20092;-79
2022/08/08 03:00:18;;;;;;;1.20;0.90;;;12.00;99.90;;;;;;5032344;28;20088;-79
2022/08/08 03:03:11;;;;;;;1.73;1.23;;;11.90;99.90;;;;;;5022119;28;20053;-79
2022/08/08 03:06:10;;;;;;;3.20;1.50;;;11.90;99.90;;;;;;5016149;28;20045;-79
2022/08/08 03:09:29;;;;;;;2.10;1.65;;;11.90;99.90;;;;;;5032472;28;20116;-79
2022/08/08 03:12:29;;;;;;;2.90;1.60;;;12.00;99.90;;;;;;5011039;28;20446;-82
2022/08/08 03:15:15;;;;;;;2.75;1.52;;;12.20;99.90;;;;;;5026344;28;20046;-82
2022/08/08 03:17:56;;;;;;;4.47;1.65;;;12.30;99.90;;;;;;4996898;28;20434;-82
2022/08/08 03:20:21;;;;;;;2.40;1.50;;;12.50;99.90;;;;;;4985344;28;20092;-82
2022/08/08 03:22:52;;;;;;;3.58;1.95;;;12.60;99.90;;;;;;5014214;28;20080;-82
2022/08/08 03:25:21;;;;;;;2.13;1.55;;;12.70;99.90;;;;;;5036333;28;20046;-82
2022/08/08 03:27:52;;;;;;;2.25;1.48;;;12.80;99.90;;;;;;5036062;28;20399;-82
2022/08/08 03:30:21;;;;;;;2.45;1.52;;;12.90;99.90;;;;;;5019529;28;20042;-82
2022/08/08 03:35:37;;;;;;;2.20;1.42;;;13.20;99.90;;;;;;5022141;28;20488;-82
2022/08/08 03:38:03;;;;;;;1.80;1.45;;;13.30;99.90;;;;;;5036142;28;20045;-82
2022/08/08 03:40:28;;;;;;;2.42;1.55;;;13.40;99.90;;;;;;5003283;28;20033;-82
2022/08/08 03:42:54;;;;;;;2.00;1.25;;;13.40;99.90;;;;;;5002685;28;20045;-82
2022/08/08 03:45:26;;;;;;;3.55;1.55;;;13.50;99.90;;;;;;4991011;28;20072;-81
2022/08/08 03:47:55;;;;;;;2.00;1.27;;;13.60;99.90;;;;;;5020200;28;20176;-81
2022/08/08 03:50:22;;;;;;;2.70;1.48;;;13.60;99.90;;;;;;5034972;28;20555;-81
2022/08/08 03:52:47;;;;;;;2.40;1.45;;;13.60;99.90;;;;;;5033973;28;20111;-81
2022/08/08 03:55:15;;;;;;;4.63;1.85;;;13.70;99.90;;;;;;5001173;28;20087;-81
2022/08/08 03:57:50;;;;;;;2.67;1.77;;;13.70;99.90;;;;;;5015508;28;20041;-81
2022/08/08 04:00:18;;;;;;;2.75;1.75;;;13.80;99.90;;;;;;5035355;28;20518;-82
2022/08/08 04:02:57;;;;;;;3.30;2.00;;;13.80;99.90;;;;;;5002932;28;20041;-82
2022/08/08 04:05:28;;;;;;;1.67;1.20;;;13.90;99.90;;;;;;5018374;28;20038;-82
2022/08/08 04:07:56;;;;;;;4.18;2.03;;;13.90;99.90;;;;;;5035946;28;20033;-82
2022/08/08 04:10:21;;;;;;;2.63;1.30;;;14.00;99.90;;;;;;5035365;28;20038;-82
2022/08/08 04:12:47;;;;;;;1.88;1.25;;;14.00;99.90;;;;;;5035502;28;20395;-82
2022/08/08 04:15:13;;;;;;;2.33;1.40;;;14.10;99.90;;;;;;5018309;28;20055;-82
2022/08/08 04:17:39;;;;;;;2.75;1.50;;;14.10;99.90;;;;;;5035128;28;20056;-79
2022/08/08 04:20:06;;;;;;;3.40;1.80;;;14.10;99.90;;;;;;5018694;28;20041;-79
2022/08/08 04:22:32;;;;;;;2.90;1.77;;;14.20;99.90;;;;;;5034973;28;20041;-79
2022/08/08 04:24:58;;;;;;;3.97;2.03;;;14.20;99.90;;;;;;5012641;28;20092;-79
2022/08/08 04:27:24;;;;;;;2.30;1.40;;;14.20;99.90;;;;;;5010601;28;20528;-79
2022/08/08 04:29:50;;;;;;;1.90;1.35;;;14.30;99.90;;;;;;5033841;28;20048;-79
2022/08/08 04:32:16;;;;;;;2.40;1.20;;;14.30;99.90;;;;;;5034703;28;20123;-79
2022/08/08 04:34:42;;;;;;;2.10;1.17;;;14.30;99.90;;;;;;5034849;28;20446;-79
2022/08/08 04:37:08;;;;;;;1.65;1.40;;;14.40;99.90;;;;;;5032230;28;20045;-80
2022/08/08 04:39:34;;;;;;;3.08;1.33;;;14.50;99.90;;;;;;5034677;28;20034;-80
2022/08/08 04:42:00;;;;;;;2.17;1.30;;;14.50;99.90;;;;;;5034884;28;20391;-80
2022/08/08 04:44:26;;;;;;;2.38;1.55;;;14.60;99.90;;;;;;5018641;28;20041;-80
2022/08/08 04:46:52;;;;;;;3.75;1.60;;;14.60;99.90;;;;;;5033595;28;20434;-80
2022/08/08 04:49:17;;;;;;;3.85;2.35;;;14.70;99.90;;;;;;5034095;28;20408;-80
2022/08/08 04:51:43;;;;;;;3.03;1.50;;;14.70;99.90;;;;;;5017844;28;20463;-80
2022/08/08 04:54:09;;;;;;;4.65;1.80;;;14.80;99.90;;;;;;5034211;28;20132;-80
2022/08/08 04:56:35;;;;;;;3.15;1.63;;;14.90;99.90;;;;;;5016104;28;20044;-80
2022/08/08 04:59:01;;;;;;;3.35;1.83;;;15.00;99.90;;;;;;5032611;28;20041;-80
2022/08/08 05:01:27;;;;;;;3.28;1.63;;;15.00;99.90;;;;;;5027375;28;20038;-80
2022/08/08 05:03:52;;;;;;;2.97;1.85;;;15.10;99.90;;;;;;5034373;28;20042;-80
2022/08/08 05:06:18;;;;;;;4.22;2.50;;;15.20;99.90;;;;;;5014057;28;20104;-80
2022/08/08 05:08:45;;;;;;;4.25;2.17;;;15.20;99.90;;;;;;5014346;28;20064;-80
2022/08/08 05:11:13;;;;;;;3.30;2.17;;;15.30;99.90;;;;;;5029621;28;20087;-80
2022/08/08 05:13:40;;;;;;;9.00;3.03;;;15.20;99.90;;;;;;5034457;28;20455;-80
2022/08/08 05:16:06;;;;;;;3.58;2.10;;;15.30;99.90;;;;;;5017492;28;20045;-80
2022/08/08 05:18:32;;;;;;;2.78;1.80;;;15.30;99.90;;;;;;5033517;28;20049;-80
2022/08/08 05:20:59;;;;;;;3.53;1.92;;;15.30;99.90;;;;;;5016425;28;20033;-80
2022/08/08 05:23:25;;;;;;;4.53;2.60;;;15.30;99.90;;;;;;5033777;28;20071;-82
2022/08/08 05:25:51;;;;;;;3.08;2.03;;;15.30;99.90;;;;;;5033808;28;20045;-82
2022/08/08 05:28:17;;;;;;;4.22;1.60;;;15.30;99.90;;;;;;5029097;28;20049;-82
2022/08/08 05:30:43;;;;;;;5.30;2.33;;;15.30;99.90;;;;;;5038402;28;20037;-82
2022/08/08 05:33:09;;;;;;;3.95;1.70;;;15.30;99.90;;;;;;5053201;28;20047;-82
2022/08/08 05:35:35;;;;;;;2.70;1.52;;;15.30;99.90;;;;;;5017624;28;20372;-82
2022/08/08 05:38:06;;;;;;;2.70;1.50;;;15.40;99.90;;;;;;5001003;28;20150;-82
2022/08/08 05:40:35;;;;;;;6.03;1.95;;;15.40;99.90;;;;;;5032974;28;20037;-82
2022/08/08 05:43:03;;;;;;;3.65;1.85;;;15.50;99.90;;;;;;5017215;28;20045;-81
2022/08/08 05:45:35;;;;;;;4.72;2.47;;;15.60;99.90;;;;;;5033551;28;20051;-81
2022/08/08 05:48:02;;;;;;;5.15;1.90;;;15.60;99.90;;;;;;5033071;28;20077;-81
2022/08/08 05:50:30;;;;;;;3.70;2.00;;;15.80;99.90;;;;;;5033433;28;20049;-81
2022/08/08 05:52:56;;;;;;;3.80;2.15;;;15.80;99.90;;;;;;5039678;28;20098;-82
2022/08/08 05:55:22;;;;;;;3.63;2.35;;;16.00;99.90;;;;;;5036425;28;20067;-82
2022/08/08 05:57:51;;;;;;;5.53;2.53;;;17.30;99.90;;;;;;5051331;28;20028;-80
2022/08/08 06:00:17;;;;;;;4.40;2.28;;;17.60;99.90;;;;;;5016657;28;20498;-80
2022/08/08 06:05:33;;;;;;;4.90;2.47;;;19.40;99.90;;;;;;5033284;28;20049;-80
2022/08/08 06:08:00;;;;;;;4.18;2.35;;;21.20;99.90;;;;;;5031957;28;20041;-80
2022/08/08 06:10:30;;;;;;;4.47;2.30;;;22.50;99.90;;;;;;5032550;28;20196;-80
2022/08/08 06:12:56;;;;;;;6.57;2.22;;;23.70;99.90;;;;;;5015415;28;20049;-80
2022/08/08 06:15:22;;;;;;;3.25;2.05;;;24.70;99.90;;;;;;5033026;28;20041;-82
2022/08/08 06:17:50;;;;;;;4.35;2.10;;;26.10;99.90;;;;;;5036383;28;20078;-82
2022/08/08 06:20:15;;;;;;;2.20;1.60;;;26.40;99.90;;;;;;5036002;28;20052;-83
2022/08/08 06:22:41;;;;;;;4.43;2.20;;;27.10;97.70;;;;;;5019947;28;20049;-83
2022/08/08 06:25:07;;;;;;;5.82;2.17;;;27.30;97.40;;;;;;4999826;28;20140;-83
2022/08/08 06:27:52;;;;;;;2.75;1.75;;;27.60;96.30;;;;;;5034121;28;20495;-83
2022/08/08 06:30:21;;;;;;;3.80;1.58;;;28.20;95.40;;;;;;5019052;28;20041;-83
2022/08/08 06:32:57;;;;;;;3.55;1.35;;;28.70;95.20;;;;;;5016598;28;20372;-83
2022/08/08 06:35:24;;;;;;;3.10;1.25;;;29.00;93.50;;;;;;5031375;28;20111;-83
2022/08/08 06:37:52;;;;;;;3.72;1.55;;;29.40;93.80;;;;;;5015775;28;20038;-83
2022/08/08 06:40:19;;;;;;;3.38;1.20;;;29.60;92.60;;;;;;5025828;28;20395;-83
2022/08/08 06:43:17;;;;;;;2.00;1.17;;;30.10;92.00;;;;;;5035501;28;20044;-83
2022/08/08 06:45:43;;;;;;;3.45;1.23;;;30.50;90.90;;;;;;5017602;28;20076;-83
2022/08/08 06:48:09;;;;;;;4.05;1.10;;;30.80;90.60;;;;;;5036013;28;20125;-83
2022/08/08 06:50:35;;;;;;;2.47;0.80;;;31.10;90.00;;;;;;5012283;28;20132;-83
2022/08/08 06:53:02;;;;;;;3.60;0.70;;;30.70;87.20;;;;;;4985514;28;20045;-83
2022/08/08 06:55:29;;;;;;;2.03;0.90;;;30.80;89.00;;;;;;5043974;28;20082;-83
2022/08/08 06:57:55;;;;;;;3.45;0.88;;;31.30;88.20;;;;;;5039820;28;20048;-83
2022/08/08 07:00:21;;;;;;;0.93;0.65;;;31.60;86.70;;;;;;5039685;28;20040;-83
2022/08/08 07:02:58;;;;;;;0.63;0.57;;;31.60;86.90;;;;;;5039405;28;20036;-83
2022/08/08 07:05:25;;;;;;;1.42;0.85;;;31.60;84.30;;;;;;5037739;28;20414;-81
2022/08/08 07:08:19;;;;;;;3.10;1.23;;;31.60;86.00;;;;;;5018439;28;20045;-81
2022/08/08 07:10:49;;;;;;;1.05;0.63;;;31.90;84.30;;;;;;5034927;28;20052;-82
2022/08/08 07:13:17;;;;;;;1.65;0.80;;;32.40;85.00;;;;;;5019423;28;20041;-81
2022/08/08 07:15:59;;;;;;;1.25;0.45;;;32.60;82.20;;;;;;5026048;28;20049;-80
2022/08/08 07:18:32;;;;;;;0.63;0.40;;;32.70;82.10;;;;;;5023773;28;20045;-80
2022/08/08 07:21:05;;;;;;;2.35;0.50;;;32.80;79.80;;;;;;5038418;28;20067;-82
2022/08/08 07:23:42;;;;;;;1.50;0.80;;;33.10;82.40;;;;;;5037388;28;20471;-82
2022/08/08 07:26:09;;;;;;;2.35;0.75;;;33.10;80.50;;;;;;5032824;28;20045;-82
2022/08/08 07:28:36;;;;;;;1.70;0.80;;;33.10;78.10;;;;;;5019613;28;20070;-82
2022/08/08 07:31:04;;;;;;;0.40;0.40;;;33.20;79.40;;;;;;5020305;28;20049;-83
2022/08/08 07:33:31;;;;;;;1.38;0.57;;;33.00;79.40;;;;;;5037713;28;20045;-83
2022/08/08 07:35:59;;;;;;;3.80;0.82;;;33.10;78.10;;;;;;5032920;28;20076;-83
2022/08/08 07:38:27;;;;;;;0.20;0.20;;;33.20;80.00;;;;;;5039271;28;20048;-82
2022/08/08 07:40:59;;;;;;;1.50;0.93;;;33.20;77.30;;;;;;5039180;28;20419;-83
2022/08/08 07:43:25;;;;;;;0.55;0.47;;;33.20;75.60;;;;;;5039254;28;20550;-83
2022/08/08 07:45:50;;;;;;;2.80;0.50;;;33.10;77.00;;;;;;5037087;28;20077;-83
2022/08/08 07:48:17;;;;;;;1.08;0.60;;;33.40;74.20;;;;;;5022902;28;20088;-82
2022/08/08 07:50:47;;;;;;;2.03;0.85;;;33.20;75.90;;;;;;5038600;28;20037;-83
2022/08/08 07:53:28;;;;;;;0.32;0.20;;;32.80;76.40;;;;;;5038658;28;20053;-81
2022/08/08 07:55:58;;;;;;;1.35;0.50;;;32.20;76.00;;;;;;5037185;28;20033;-81
2022/08/08 07:58:30;;;;;;;0.40;0.30;;;32.80;76.30;;;;;;5038223;28;20117;-81
2022/08/08 08:01:06;;;;;;;2.78;0.60;;;33.00;75.30;;;;;;5021867;28;20053;-81
2022/08/08 08:03:44;;;;;;;0.90;0.65;;;31.90;76.50;;;;;;5021035;28;20043;-80
2022/08/08 08:06:12;;;;;;;0.63;0.38;;;30.50;78.10;;;;;;5036865;28;20048;-80
2022/08/08 08:08:41;;;;;;;2.05;0.30;;;29.70;78.90;;;;;;5021836;28;20071;-80
2022/08/08 08:11:12;;;;;;;1.67;0.40;;;28.90;81.30;;;;;;5021682;28;20438;-82
2022/08/08 08:14:00;;;;;;;2.35;0.75;;;28.00;81.90;;;;;;5022085;28;20071;-82
2022/08/08 08:16:29;;;;;;;1.00;0.60;;;27.10;83.20;;;;;;5027997;28;20068;-82
2022/08/08 08:18:58;;;;;;;0.30;0.30;;;26.50;85.60;;;;;;5038209;28;20514;-82
2022/08/08 08:21:41;;;;;;;1.70;0.68;;;26.00;86.20;;;;;;5021512;28;20090;-82
2022/08/08 08:24:08;;;;;;;0.50;0.50;;;25.50;88.30;;;;;;5034128;28;20041;-82
2022/08/08 08:26:33;;;;;;;1.35;1.00;;;25.10;89.70;;;;;;5036863;28;20147;-82
2022/08/08 08:28:59;;;;;;;1.30;0.70;;;24.50;90.50;;;;;;5021145;28;20550;-82
2022/08/08 08:31:25;;;;;;;1.23;0.80;;;24.20;91.00;;;;;;5037664;28;20040;-82
2022/08/08 08:33:51;;;;;;;1.40;0.55;;;23.80;91.50;;;;;;5037591;28;20036;-82
2022/08/08 08:36:18;;;;;;;0.50;0.50;;;23.60;91.90;;;;;;5021638;28;20441;-82
2022/08/08 08:38:44;;;;;;;3.03;0.75;;;23.40;91.90;;;;;;5004567;28;20070;-82
2022/08/08 08:41:11;;;;;;;3.03;0.73;;;23.20;93.00;;;;;;5037785;28;20102;-82
2022/08/08 08:43:39;;;;;;;2.08;0.55;;;23.00;93.30;;;;;;5037402;28;20049;-82
2022/08/08 08:46:08;;;;;;;1.88;0.70;;;23.10;93.60;;;;;;5021649;28;20045;-83
2022/08/08 08:48:34;;;;;;;1.17;0.65;;;23.10;93.80;;;;;;5037234;28;20106;-83
2022/08/08 08:51:01;;;;;;;3.45;0.75;;;23.10;93.90;;;;;;5035683;28;20040;-83
2022/08/08 08:53:28;;;;;;;1.27;0.70;;;23.10;93.90;;;;;;5037707;28;20045;-83
2022/08/08 08:55:55;;;;;;;1.58;0.90;;;23.00;93.20;;;;;;5034477;28;20091;-83
2022/08/08 08:58:44;;;;;;;1.08;0.60;;;23.00;93.50;;;;;;5021017;28;20151;-83
2022/08/08 09:01:13;;;;;;;0.85;0.70;;;23.00;93.30;;;;;;5020151;28;20091;-83
2022/08/08 09:03:40;;;;;;;0.98;0.60;;;22.90;93.90;;;;;;5034449;28;20040;-83
2022/08/08 09:06:09;;;;;;;1.48;0.50;;;23.00;93.80;;;;;;5033756;28;20051;-83
2022/08/08 09:08:38;;;;;;;1.55;0.55;;;23.10;94.70;;;;;;5013088;28;20045;-83
2022/08/08 09:11:06;;;;;;;1.52;0.70;;;23.10;94.20;;;;;;5030696;28;20360;-83
2022/08/08 09:13:34;;;;;;;0.77;0.60;;;23.10;93.90;;;;;;5023243;28;20041;-83
2022/08/08 09:16:01;;;;;;;3.03;0.52;;;23.20;93.50;;;;;;5010470;28;20041;-82
2022/08/08 09:18:28;;;;;;;0.98;0.38;;;23.20;93.90;;;;;;5025434;28;20466;-83
2022/08/08 09:20:54;;;;;;;1.70;0.75;;;23.10;93.90;;;;;;5030777;28;20074;-82
2022/08/08 09:23:21;;;;;;;0.40;0.40;;;23.00;94.10;;;;;;5020521;28;20032;-82
2022/08/08 09:25:56;;;;;;;2.70;0.80;;;23.00;94.40;;;;;;5019764;28;20127;-82
2022/08/08 09:28:26;;;;;;;4.25;0.80;;;22.90;95.20;;;;;;5036532;28;20051;-82
2022/08/08 09:30:56;;;;;;;1.95;0.70;;;22.80;94.60;;;;;;5035778;28;20771;-82
2022/08/08 09:33:25;;;;;;;1.25;0.63;;;22.70;95.20;;;;;;5036759;28;20064;-80
2022/08/08 09:35:51;;;;;;;1.88;0.88;;;22.70;95.50;;;;;;5020107;28;20041;-79
2022/08/08 09:38:43;;;;;;;0.93;0.50;;;22.70;96.20;;;;;;5003842;28;20045;-79
2022/08/08 09:41:12;;;;;;;1.55;0.77;;;22.70;96.10;;;;;;5019993;28;20585;-79
2022/08/08 09:43:49;;;;;;;0.55;0.50;;;22.80;95.40;;;;;;5035472;28;20048;-79
2022/08/08 09:46:16;;;;;;;3.30;1.00;;;22.70;95.70;;;;;;5035056;28;20133;-79
2022/08/08 09:48:44;;;;;;;2.20;0.90;;;22.60;95.80;;;;;;5020250;28;20037;-79
2022/08/08 09:51:14;;;;;;;3.58;0.90;;;22.50;96.00;;;;;;5033847;28;20498;-82
2022/08/08 09:53:53;;;;;;;1.17;0.85;;;22.40;96.00;;;;;;5036527;28;20111;-82
2022/08/08 09:56:20;;;;;;;0.73;0.65;;;22.30;96.00;;;;;;5036286;28;20037;-81
2022/08/08 09:58:56;;;;;;;3.47;1.48;;;22.10;96.80;;;;;;5035778;28;20098;-81
2022/08/08 10:01:23;;;;;;;3.53;1.20;;;22.00;96.90;;;;;;5019268;28;20044;-81
2022/08/08 10:03:49;;;;;;;0.82;0.82;;;21.90;97.30;;;;;;5036370;28;20187;-81
2022/08/08 10:06:18;;;;;;;3.28;0.90;;;21.90;97.80;;;;;;5018492;28;20048;-81
2022/08/08 10:08:45;;;;;;;0.88;0.70;;;21.90;98.10;;;;;;5019616;28;20041;-79
2022/08/08 10:11:15;;;;;;;1.15;0.95;;;22.00;98.10;;;;;;5019384;28;20051;-79
2022/08/08 10:13:58;;;;;;;1.35;1.00;;;22.00;98.20;;;;;;5036109;28;20037;-80
2022/08/08 10:16:36;;;;;;;0.60;0.60;;;21.90;98.50;;;;;;5018448;28;20049;-80
2022/08/08 10:19:04;;;;;;;1.88;1.02;;;21.90;98.70;;;;;;5035875;28;20040;-79
2022/08/08 10:21:34;;;;;;;1.73;1.05;;;21.80;99.00;;;;;;5019277;28;20036;-79
2022/08/08 10:24:10;;;;;;;1.60;0.90;;;21.80;99.20;;;;;;5003954;28;20040;-81
2022/08/08 10:26:51;;;;;;;2.03;1.10;;;21.80;99.50;;;;;;5036147;28;20060;-81
2022/08/08 10:29:32;;;;;;;2.17;1.38;;;21.70;99.80;;;;;;5015996;28;20379;-82
2022/08/08 10:34:51;;;;;;;3.75;1.65;;;21.50;99.90;;;;;;5036213;28;20053;-81
2022/08/08 10:37:32;;;;;;;2.85;1.00;;;21.50;99.90;;;;;;5035473;28;20049;-81
2022/08/08 10:40:00;;;;;;;3.75;1.00;;;21.40;99.90;;;;;;5012334;28;20033;-84
2022/08/08 10:42:34;;;;;;;1.75;1.00;;;21.40;99.90;;;;;;5015795;28;20049;-84
2022/08/08 10:45:07;;;;;;;1.50;1.27;;;21.40;99.90;;;;;;5018824;28;20048;-84
2022/08/08 10:47:33;;;;;;;1.40;0.77;;;21.40;99.90;;;;;;5028593;28;20090;-83
2022/08/08 10:50:01;;;;;;;1.92;1.08;;;21.50;99.90;;;;;;5010937;28;20423;-84
2022/08/08 10:52:35;;;;;;;1.10;1.00;;;21.60;99.90;;;;;;5020240;28;20033;-84
2022/08/08 10:55:08;;;;;;;1.27;0.93;;;21.70;99.90;;;;;;5015302;28;20045;-84
2022/08/08 10:57:42;;;;;;;2.80;1.15;;;21.90;99.50;;;;;;5025321;28;20047;-82
2022/08/08 11:00:11;;;;;;;1.13;0.70;;;21.90;99.60;;;;;;5035160;28;20156;-82
2022/08/08 11:02:37;;;;;;;1.00;0.73;;;22.00;99.70;;;;;;5018608;28;20475;-82
2022/08/08 11:05:09;;;;;;;1.70;1.02;;;22.10;99.40;;;;;;5035990;28;20036;-82
2022/08/08 11:07:38;;;;;;;2.10;1.30;;;22.30;98.80;;;;;;5035058;28;20048;-82
2022/08/08 11:10:16;;;;;;;1.25;1.00;;;22.40;98.60;;;;;;5018840;28;20462;-82
2022/08/08 11:12:46;;;;;;;1.35;0.98;;;22.70;98.90;;;;;;5034361;28;20497;-82
2022/08/08 11:15:14;;;;;;;1.08;0.90;;;23.00;98.70;;;;;;5015888;28;20052;-82
2022/08/08 11:17:40;;;;;;;3.28;1.17;;;23.30;98.30;;;;;;5015077;28;20088;-80
2022/08/08 11:20:08;;;;;;;1.60;1.15;;;23.80;98.30;;;;;;5034050;28;20041;-79
2022/08/08 11:22:35;;;;;;;2.67;1.10;;;24.10;97.70;;;;;;5033677;28;20097;-82
2022/08/08 11:25:03;;;;;;;1.42;0.98;;;24.70;97.20;;;;;;4992660;28;20033;-82
2022/08/08 11:27:31;;;;;;;1.23;0.88;;;25.30;95.80;;;;;;5009127;28;20108;-79
2022/08/08 11:29:59;;;;;;;2.15;1.02;;;25.60;95.20;;;;;;5025343;28;20037;-81
2022/08/08 11:32:30;;;;;;;2.45;1.27;;;25.80;94.90;;;;;;5009592;28;20045;-82
2022/08/08 11:35:14;;;;;;;1.85;1.00;;;26.70;95.10;;;;;;5024274;28;20037;-82
2022/08/08 11:37:41;;;;;;;4.32;1.65;;;27.50;93.90;;;;;;4993397;28;20052;-82
2022/08/08 11:40:12;;;;;;;1.48;0.90;;;27.60;91.60;;;;;;4995259;28;20033;-82
2022/08/08 11:42:39;;;;;;;3.35;1.50;;;27.40;91.80;;;;;;5012391;28;20049;-82
2022/08/08 11:45:06;;;;;;;2.35;1.23;;;27.20;91.60;;;;;;5028258;28;20473;-82
2022/08/08 11:47:33;;;;;;;2.47;1.17;;;26.80;91.30;;;;;;5011009;28;21431;-82
2022/08/08 11:50:05;;;;;;;3.17;1.17;;;26.50;92.70;;;;;;5014757;28;20041;-82
2022/08/08 11:52:31;;;;;;;1.23;1.00;;;26.20;92.80;;;;;;5024676;28;20043;-81
2022/08/08 11:54:57;;;;;;;3.83;1.00;;;25.80;92.80;;;;;;5027186;28;20041;-82
2022/08/08 11:57:28;;;;;;;1.42;0.90;;;25.40;93.40;;;;;;5027287;28;20151;-82
2022/08/08 11:59:59;;;;;;;0.57;0.57;;;25.20;93.60;;;;;;5036641;28;20412;-82
2022/08/08 12:02:28;;;;;;;1.17;0.70;;;25.00;93.60;;;;;;5037321;28;20072;-82
2022/08/08 12:05:09;;;;;;;1.42;0.80;;;24.80;93.90;;;;;;5035512;28;20411;-80
2022/08/08 12:07:52;;;;;;;1.10;0.80;;;24.60;94.10;;;;;;5017644;28;20508;-80
2022/08/08 12:10:21;;;;;;;1.38;1.08;;;24.60;94.30;;;;;;5024065;28;20041;-80
2022/08/08 12:12:48;;;;;;;1.08;0.68;;;24.50;94.90;;;;;;5037823;28;20049;-80
2022/08/08 12:15:29;;;;;;;4.25;1.10;;;24.50;94.60;;;;;;5029250;28;20467;-79
2022/08/08 12:17:55;;;;;;;1.45;0.90;;;24.40;95.30;;;;;;5018380;28;20132;-80
2022/08/08 12:20:21;;;;;;;1.75;1.02;;;24.60;94.80;;;;;;5016457;28;20124;-82
2022/08/08 12:22:49;;;;;;;2.38;0.93;;;24.70;94.90;;;;;;5037997;28;20103;-82
2022/08/08 12:25:23;;;;;;;2.80;1.33;;;24.90;94.00;;;;;;5037741;28;20094;-82
2022/08/08 12:27:50;;;;;;;1.13;0.88;;;25.10;94.80;;;;;;5034762;28;20107;-82
2022/08/08 12:30:27;;;;;;;1.35;0.82;;;25.40;94.40;;;;;;5017423;28;20117;-82
2022/08/08 12:32:57;;;;;;;1.10;1.00;;;25.80;94.10;;;;;;5021517;28;20037;-82
2022/08/08 12:35:23;;;;;;;1.65;1.00;;;26.40;94.10;;;;;;5037756;28;20049;-82
2022/08/08 12:38:12;;;;;;;2.00;0.70;;;27.00;94.70;;;;;;5019831;28;20036;-80
2022/08/08 12:40:51;;;;;;;1.33;1.00;;;27.80;92.80;;;;;;5003568;28;20048;-80
2022/08/08 12:43:27;;;;;;;1.70;0.80;;;27.50;91.20;;;;;;5001289;28;20480;-80
2022/08/08 12:45:53;;;;;;;2.97;0.77;;;27.20;91.40;;;;;;5024154;28;20037;-80
2022/08/08 12:48:23;;;;;;;3.03;1.02;;;26.80;91.80;;;;;;5030069;28;20494;-80
2022/08/08 12:50:57;;;;;;;2.25;0.65;;;26.40;92.20;;;;;;5012509;28;20037;-80
2022/08/08 12:53:33;;;;;;;2.58;0.70;;;25.80;92.20;;;;;;5021435;28;20044;-81
2022/08/08 12:56:01;;;;;;;1.17;0.88;;;25.30;92.60;;;;;;5030636;28;20127;-82
2022/08/08 12:58:41;;;;;;;1.13;0.93;;;24.90;92.80;;;;;;5014592;28;20478;-82
2022/08/08 13:01:08;;;;;;;1.42;1.10;;;24.70;93.20;;;;;;5016030;23;20042;-84
2022/08/08 13:03:34;;;;;;;0.63;0.63;;;24.30;93.30;;;;;;5016721;28;20060;-84
2022/08/08 13:06:05;;;;;;;0.95;0.63;;;24.20;93.30;;;;;;4997299;28;20476;-85
2022/08/08 13:09:06;;;;;;;0.75;0.75;;;24.00;93.90;;;;;;5027693;28;20484;-82
2022/08/08 13:11:34;;;;;;;2.88;1.10;;;23.80;94.10;;;;;;5030675;28;20037;-82
2022/08/08 13:14:14;;;;;;;1.75;0.80;;;23.60;94.20;;;;;;5031188;28;20040;-82
2022/08/08 13:16:41;;;;;;;2.65;1.15;;;23.50;95.00;;;;;;5028513;28;20046;-82
2022/08/08 13:19:09;;;;;;;1.75;0.85;;;23.50;94.70;;;;;;5027015;28;20072;-82
2022/08/08 13:21:41;;;;;;;1.27;0.85;;;23.50;95.20;;;;;;5053740;28;20045;-82
2022/08/08 13:24:07;;;;;;;2.42;0.80;;;23.50;95.00;;;;;;5037061;28;20048;-82
2022/08/08 13:26:33;;;;;;;2.85;1.00;;;23.60;95.30;;;;;;5046576;28;20562;-80
2022/08/08 13:29:08;;;;;;;3.65;0.90;;;23.70;94.90;;;;;;5042846;28;20041;-79
2022/08/08 13:31:34;;;;;;;1.27;0.73;;;23.80;95.40;;;;;;5022760;28;20037;-80